sensor_id;sensor_type;location;lat;lon;timestamp;pressure;altitude;pressure_sealevel;temperature;humidity
75913;BME280;64592;52.168;21.040;2023-03-01T00:01:14;101766.34;;;-1.58;75.80
75913;BME280;64592;52.168;21.040;2023-03-01T00:06:16;101759.28;;;-1.62;75.88
75913;BME280;64592;52.168;21.040;2023-03-01T00:11:20;101760.19;;;-1.66;75.56
75913;BME280;64592;52.168;21.040;2023-03-01T00:16:26;101760.22;;;-1.75;75.55
75913;BME280;64592;52.168;21.040;2023-03-01T00:21:28;101747.91;;;-1.79;76.13
75913;BME280;64592;52.168;21.040;2023-03-01T00:26:30;101754.06;;;-1.81;75.93
75913;BME280;64592;52.168;21.040;2023-03-01T00:31:33;101748.78;;;-1.84;76.05
75913;BME280;64592;52.168;21.040;2023-03-01T00:36:36;101737.31;;;-1.85;76.82
75913;BME280;64592;52.168;21.040;2023-03-01T00:41:38;101732.03;;;-1.85;76.49
75913;BME280;64592;52.168;21.040;2023-03-01T00:46:41;101736.47;;;-1.94;76.43
75913;BME280;64592;52.168;21.040;2023-03-01T00:51:43;101727.72;;;-2.10;77.44
75913;BME280;64592;52.168;21.040;2023-03-01T00:56:44;101719.78;;;-2.10;77.29
75913;BME280;64592;52.168;21.040;2023-03-01T01:01:47;101725.09;;;-2.22;78.42
75913;BME280;64592;52.168;21.040;2023-03-01T01:06:49;101724.19;;;-2.17;77.40
75913;BME280;64592;52.168;21.040;2023-03-01T01:11:51;101721.53;;;-2.11;77.29
75913;BME280;64592;52.168;21.040;2023-03-01T01:16:54;101705.69;;;-2.09;77.65
75913;BME280;64592;52.168;21.040;2023-03-01T01:21:56;101702.19;;;-2.08;78.42
75913;BME280;64592;52.168;21.040;2023-03-01T01:26:58;101700.38;;;-2.06;78.27
75913;BME280;64592;52.168;21.040;2023-03-01T01:32:01;101697.75;;;-2.05;77.70
75913;BME280;64592;52.168;21.040;2023-03-01T01:37:02;101691.63;;;-2.08;77.59
75913;BME280;64592;52.168;21.040;2023-03-01T01:42:12;101694.22;;;-2.04;77.68
75913;BME280;64592;52.168;21.040;2023-03-01T01:47:20;101693.34;;;-2.01;77.81
75913;BME280;64592;52.168;21.040;2023-03-01T01:52:26;101681.88;;;-1.99;77.69
75913;BME280;64592;52.168;21.040;2023-03-01T01:57:32;101674.88;;;-2.03;78.23
75913;BME280;64592;52.168;21.040;2023-03-01T02:02:37;101675.75;;;-2.05;78.73
75913;BME280;64592;52.168;21.040;2023-03-01T02:07:41;101670.44;;;-1.99;78.65
75913;BME280;64592;52.168;21.040;2023-03-01T02:12:44;101667.81;;;-2.01;77.85
75913;BME280;64592;52.168;21.040;2023-03-01T02:17:47;101682.78;;;-2.04;78.32
75913;BME280;64592;52.168;21.040;2023-03-01T02:22:48;101681.91;;;-2.06;78.68
75913;BME280;64592;52.168;21.040;2023-03-01T02:27:57;101672.22;;;-2.07;79.07
75913;BME280;64592;52.168;21.040;2023-03-01T02:33:03;101666.94;;;-2.13;79.10
75913;BME280;64592;52.168;21.040;2023-03-01T02:38:07;101666.09;;;-2.09;79.02
75913;BME280;64592;52.168;21.040;2023-03-01T02:43:11;101649.34;;;-2.08;78.44
75913;BME280;64592;52.168;21.040;2023-03-01T02:48:15;101643.19;;;-2.12;78.90
75913;BME280;64592;52.168;21.040;2023-03-01T02:53:21;101642.31;;;-2.14;78.11
75913;BME280;64592;52.168;21.040;2023-03-01T02:58:24;101648.50;;;-2.25;78.71
75913;BME280;64592;52.168;21.040;2023-03-01T03:03:27;101659.09;;;-2.33;80.16
75913;BME280;64592;52.168;21.040;2023-03-01T03:08:29;101627.41;;;-2.41;79.82
75913;BME280;64592;52.168;21.040;2023-03-01T03:13:31;101632.69;;;-2.41;80.39
75913;BME280;64592;52.168;21.040;2023-03-01T03:18:34;101621.25;;;-2.43;79.87
75913;BME280;64592;52.168;21.040;2023-03-01T03:23:35;101618.63;;;-2.41;79.47
75913;BME280;64592;52.168;21.040;2023-03-01T03:28:37;101612.47;;;-2.42;79.60
75913;BME280;64592;52.168;21.040;2023-03-01T03:33:41;101606.28;;;-2.36;79.08
75913;BME280;64592;52.168;21.040;2023-03-01T03:38:43;101608.03;;;-2.37;79.15
75913;BME280;64592;52.168;21.040;2023-03-01T03:43:45;101608.03;;;-2.37;79.43
75913;BME280;64592;52.168;21.040;2023-03-01T03:48:49;101611.59;;;-2.41;79.43
75913;BME280;64592;52.168;21.040;2023-03-01T03:53:50;101614.22;;;-2.42;79.58
75913;BME280;64592;52.168;21.040;2023-03-01T03:58:52;101592.22;;;-2.40;79.22
75913;BME280;64592;52.168;21.040;2023-03-01T04:03:55;101591.38;;;-2.45;78.89
75913;BME280;64592;52.168;21.040;2023-03-01T04:09:04;101591.38;;;-2.45;79.03
75913;BME280;64592;52.168;21.040;2023-03-01T04:14:06;101581.66;;;-2.38;79.17
75913;BME280;64592;52.168;21.040;2023-03-01T04:19:09;101587.81;;;-2.44;79.68
75913;BME280;64592;52.168;21.040;2023-03-01T04:24:10;101587.84;;;-2.48;79.77
75913;BME280;64592;52.168;21.040;2023-03-01T04:29:12;101580.81;;;-2.45;79.89
75913;BME280;64592;52.168;21.040;2023-03-01T04:34:15;101582.53;;;-2.42;79.35
75913;BME280;64592;52.168;21.040;2023-03-01T04:39:17;101584.31;;;-2.44;79.84
75913;BME280;64592;52.168;21.040;2023-03-01T04:44:19;101570.22;;;-2.39;79.83
75913;BME280;64592;52.168;21.040;2023-03-01T04:49:22;101566.69;;;-2.35;79.01
75913;BME280;64592;52.168;21.040;2023-03-01T04:54:23;101559.63;;;-2.36;78.48
75913;BME280;64592;52.168;21.040;2023-03-01T04:59:25;101559.63;;;-2.36;78.94
75913;BME280;64592;52.168;21.040;2023-03-01T05:04:28;101545.59;;;-2.38;79.45
75913;BME280;64592;52.168;21.040;2023-03-01T05:09:31;101549.97;;;-2.37;78.93
75913;BME280;64592;52.168;21.040;2023-03-01T05:14:33;101552.63;;;-2.40;79.02
75913;BME280;64592;52.168;21.040;2023-03-01T05:19:36;101557.03;;;-2.42;79.04
75913;BME280;64592;52.168;21.040;2023-03-01T05:24:38;101557.91;;;-2.43;79.71
75913;BME280;64592;52.168;21.040;2023-03-01T05:29:40;101571.09;;;-2.44;79.12
75913;BME280;64592;52.168;21.040;2023-03-01T05:34:42;101591.34;;;-2.40;78.90
75913;BME280;64592;52.168;21.040;2023-03-01T05:39:46;101591.31;;;-2.34;79.58
75913;BME280;64592;52.168;21.040;2023-03-01T05:44:50;101598.38;;;-2.31;79.43
75913;BME280;64592;52.168;21.040;2023-03-01T05:49:53;101593.94;;;-2.29;79.21
75913;BME280;64592;52.168;21.040;2023-03-01T05:54:55;101595.72;;;-2.31;79.08
75913;BME280;64592;52.168;21.040;2023-03-01T05:59:56;101599.22;;;-2.29;79.75
75913;BME280;64592;52.168;21.040;2023-03-01T06:04:59;101594.81;;;-2.23;78.80
75913;BME280;64592;52.168;21.040;2023-03-01T06:10:02;101592.16;;;-2.18;78.72
75913;BME280;64592;52.168;21.040;2023-03-01T06:15:05;101590.38;;;-2.12;79.30
75913;BME280;64592;52.168;21.040;2023-03-01T06:20:14;101593.84;;;-2.07;79.05
75913;BME280;64592;52.168;21.040;2023-03-01T06:25:19;101591.19;;;-1.99;78.48
75913;BME280;64592;52.168;21.040;2023-03-01T06:30:23;101598.22;;;-1.93;78.54
75913;BME280;64592;52.168;21.040;2023-03-01T06:35:27;101601.72;;;-1.87;78.38
75913;BME280;64592;52.168;21.040;2023-03-01T06:40:31;101599.91;;;-1.82;78.14
75913;BME280;64592;52.168;21.040;2023-03-01T06:45:32;101594.63;;;-1.79;78.21
75913;BME280;64592;52.168;21.040;2023-03-01T06:50:36;101596.38;;;-1.75;78.75
75913;BME280;64592;52.168;21.040;2023-03-01T06:55:38;101601.59;;;-1.69;77.82
75913;BME280;64592;52.168;21.040;2023-03-01T07:00:40;101593.63;;;-1.63;78.18
75913;BME280;64592;52.168;21.040;2023-03-01T07:05:44;101595.34;;;-1.56;78.56
75913;BME280;64592;52.168;21.040;2023-03-01T07:10:46;101596.19;;;-1.47;78.35
75913;BME280;64592;52.168;21.040;2023-03-01T07:15:47;101604.06;;;-1.40;77.28
75913;BME280;64592;52.168;21.040;2023-03-01T07:20:50;101599.63;;;-1.32;77.18
75913;BME280;64592;52.168;21.040;2023-03-01T07:25:52;101594.25;;;-1.21;77.87
75913;BME280;64592;52.168;21.040;2023-03-01T07:30:54;101587.09;;;-1.10;77.43
75913;BME280;64592;52.168;21.040;2023-03-01T07:35:58;101572.94;;;-1.01;76.38
75913;BME280;64592;52.168;21.040;2023-03-01T07:41:02;101563.16;;;-0.92;76.47
75913;BME280;64592;52.168;21.040;2023-03-01T07:46:06;101571.00;;;-0.83;76.00
75913;BME280;64592;52.168;21.040;2023-03-01T07:51:09;101572.66;;;-0.72;76.01
75913;BME280;64592;52.168;21.040;2023-03-01T07:56:13;101573.38;;;-0.57;75.66
75913;BME280;64592;52.168;21.040;2023-03-01T08:01:18;101575.00;;;-0.41;75.10
75913;BME280;64592;52.168;21.040;2023-03-01T08:06:21;101581.81;;;-0.21;74.28
75913;BME280;64592;52.168;21.040;2023-03-01T08:11:23;101574.63;;;-0.09;73.54
75913;BME280;64592;52.168;21.040;2023-03-01T08:16:25;101572.69;;;0.04;73.86
75913;BME280;64592;52.168;21.040;2023-03-01T08:21:28;101578.66;;;0.21;73.30
75913;BME280;64592;52.168;21.040;2023-03-01T08:26:30;101586.31;;;0.41;73.13
75913;BME280;64592;52.168;21.040;2023-03-01T08:31:33;101574.59;;;0.57;72.15
75913;BME280;64592;52.168;21.040;2023-03-01T08:36:38;101577.78;;;0.81;72.22
75913;BME280;64592;52.168;21.040;2023-03-01T08:41:41;101572.19;;;0.97;71.98
75913;BME280;64592;52.168;21.040;2023-03-01T08:46:43;101564.91;;;1.10;70.93
75913;BME280;64592;52.168;21.040;2023-03-01T08:51:47;101562.78;;;1.30;70.81
75913;BME280;64592;52.168;21.040;2023-03-01T08:56:49;101576.72;;;1.41;70.87
75913;BME280;64592;52.168;21.040;2023-03-01T09:01:51;101578.28;;;1.53;71.02
75913;BME280;64592;52.168;21.040;2023-03-01T09:06:54;101575.31;;;1.70;70.67
75913;BME280;64592;52.168;21.040;2023-03-01T09:11:56;101574.16;;;1.83;69.86
75913;BME280;64592;52.168;21.040;2023-03-01T09:16:58;101580.03;;;1.99;69.56
75913;BME280;64592;52.168;21.040;2023-03-01T09:22:04;101580.66;;;2.11;69.55
75913;BME280;64592;52.168;21.040;2023-03-01T09:27:06;101573.41;;;2.19;69.67
75913;BME280;64592;52.168;21.040;2023-03-01T09:32:09;101559.97;;;2.24;69.13
75913;BME280;64592;52.168;21.040;2023-03-01T09:37:12;101556.34;;;2.29;69.23
75913;BME280;64592;52.168;21.040;2023-03-01T09:42:15;101556.97;;;2.39;69.00
75913;BME280;64592;52.168;21.040;2023-03-01T09:47:19;101547.97;;;2.45;68.90
75913;BME280;64592;52.168;21.040;2023-03-01T09:52:29;101542.56;;;2.49;69.15
75913;BME280;64592;52.168;21.040;2023-03-01T09:57:41;101544.00;;;2.64;68.57
75913;BME280;64592;52.168;21.040;2023-03-01T10:02:47;101538.53;;;2.70;68.12
75913;BME280;64592;52.168;21.040;2023-03-01T10:08:01;101532.09;;;2.79;68.41
75913;BME280;64592;52.168;21.040;2023-03-01T10:13:10;101524.09;;;2.80;67.93
75913;BME280;64592;52.168;21.040;2023-03-01T10:18:20;101508.72;;;2.90;67.65
75913;BME280;64592;52.168;21.040;2023-03-01T10:23:25;101515.09;;;2.84;67.85
75913;BME280;64592;52.168;21.040;2023-03-01T10:28:31;101508.84;;;2.87;68.22
75913;BME280;64592;52.168;21.040;2023-03-01T10:33:39;101500.53;;;2.97;68.91
75913;BME280;64592;52.168;21.040;2023-03-01T10:38:50;101504.50;;;3.17;68.07
75913;BME280;64592;52.168;21.040;2023-03-01T10:43:55;101496.06;;;3.33;67.68
75913;BME280;64592;52.168;21.040;2023-03-01T10:49:13;101500.91;;;3.50;67.02
75913;BME280;64592;52.168;21.040;2023-03-01T10:54:20;101491.47;;;3.69;66.54
75913;BME280;64592;52.168;21.040;2023-03-01T10:59:26;101492.06;;;3.79;67.02
75913;BME280;64592;52.168;21.040;2023-03-01T11:04:28;101485.13;;;4.03;65.37
75913;BME280;64592;52.168;21.040;2023-03-01T11:09:33;101483.03;;;4.14;66.21
75913;BME280;64592;52.168;21.040;2023-03-01T11:14:38;101475.97;;;4.39;65.65
75913;BME280;64592;52.168;21.040;2023-03-01T11:20:00;101471.31;;;4.74;64.79
75913;BME280;64592;52.168;21.040;2023-03-01T11:25:03;101467.25;;;5.13;63.04
75913;BME280;64592;52.168;21.040;2023-03-01T11:30:12;101451.03;;;5.42;62.16
75913;BME280;64592;52.168;21.040;2023-03-01T11:35:20;101457.69;;;5.79;61.54
75913;BME280;64592;52.168;21.040;2023-03-01T11:40:27;101446.06;;;6.03;59.74
75913;BME280;64592;52.168;21.040;2023-03-01T11:45:40;101443.03;;;6.12;60.08
75913;BME280;64592;52.168;21.040;2023-03-01T11:50:46;101448.09;;;6.42;58.86
75913;BME280;64592;52.168;21.040;2023-03-01T11:56:00;101463.41;;;6.60;57.94
75913;BME280;64592;52.168;21.040;2023-03-01T12:01:12;101448.59;;;6.73;58.17
75913;BME280;64592;52.168;21.040;2023-03-01T12:06:42;101452.75;;;7.21;57.41
75913;BME280;64592;52.168;21.040;2023-03-01T12:12:02;101443.97;;;7.76;56.23
75913;BME280;64592;52.168;21.040;2023-03-01T12:17:36;101450.69;;;8.23;54.57
75913;BME280;64592;52.168;21.040;2023-03-01T12:22:58;101451.06;;;8.52;53.98
75913;BME280;64592;52.168;21.040;2023-03-01T12:33:49;101433.09;;;9.56;50.34
75913;BME280;64592;52.168;21.040;2023-03-01T12:39:02;101425.63;;;9.46;50.17
75913;BME280;64592;52.168;21.040;2023-03-01T12:44:15;101427.00;;;9.70;49.71
75913;BME280;64592;52.168;21.040;2023-03-01T12:49:28;101420.47;;;9.74;50.38
75913;BME280;64592;52.168;21.040;2023-03-01T12:54:33;101412.78;;;9.99;49.53
75913;BME280;64592;52.168;21.040;2023-03-01T12:59:39;101411.06;;;10.30;49.47
75913;BME280;64592;52.168;21.040;2023-03-01T13:04:57;101411.41;;;10.24;48.65
75913;BME280;64592;52.168;21.040;2023-03-01T13:10:21;101412.78;;;10.31;49.32
75913;BME280;64592;52.168;21.040;2023-03-01T13:15:26;101406.28;;;10.35;49.52
75913;BME280;64592;52.168;21.040;2023-03-01T13:20:34;101395.16;;;10.41;49.49
75913;BME280;64592;52.168;21.040;2023-03-01T13:26:05;101401.00;;;10.63;48.92
75913;BME280;64592;52.168;21.040;2023-03-01T13:31:09;101394.34;;;10.55;48.60
75913;BME280;64592;52.168;21.040;2023-03-01T13:36:47;101386.63;;;10.78;48.94
75913;BME280;64592;52.168;21.040;2023-03-01T13:41:52;101371.00;;;11.13;48.10
75913;BME280;64592;52.168;21.040;2023-03-01T13:46:58;101376.38;;;11.13;48.22
75913;BME280;64592;52.168;21.040;2023-03-01T13:52:02;101365.97;;;11.07;47.71
75913;BME280;64592;52.168;21.040;2023-03-01T13:57:05;101371.66;;;11.03;47.70
75913;BME280;64592;52.168;21.040;2023-03-01T14:02:12;101369.06;;;11.01;48.40
75913;BME280;64592;52.168;21.040;2023-03-01T14:07:19;101362.94;;;10.83;49.10
75913;BME280;64592;52.168;21.040;2023-03-01T14:12:39;101358.72;;;10.94;48.77
75913;BME280;64592;52.168;21.040;2023-03-01T14:17:54;101358.72;;;10.94;48.55
75913;BME280;64592;52.168;21.040;2023-03-01T14:22:59;101358.78;;;10.48;49.26
75913;BME280;64592;52.168;21.040;2023-03-01T14:28:14;101352.91;;;10.26;49.89
75913;BME280;64592;52.168;21.040;2023-03-01T14:33:22;101346.03;;;10.04;50.35
75913;BME280;64592;52.168;21.040;2023-03-01T14:38:30;101340.56;;;9.74;51.97
75913;BME280;64592;52.168;21.040;2023-03-01T14:43:34;101332.97;;;9.50;53.08
75913;BME280;64592;52.168;21.040;2023-03-01T14:48:36;101332.78;;;9.04;54.18
75913;BME280;64592;52.168;21.040;2023-03-01T14:53:38;101333.16;;;8.81;54.55
75913;BME280;64592;52.168;21.040;2023-03-01T14:58:41;101318.44;;;8.53;55.41
75913;BME280;64592;52.168;21.040;2023-03-01T15:03:44;101316.91;;;8.31;56.82
75913;BME280;64592;52.168;21.040;2023-03-01T15:08:49;101321.97;;;8.01;57.67
75913;BME280;64592;52.168;21.040;2023-03-01T15:13:53;101322.38;;;7.74;58.06
75913;BME280;64592;52.168;21.040;2023-03-01T15:18:56;101328.63;;;7.56;58.19
75913;BME280;64592;52.168;21.040;2023-03-01T15:24:04;101323.97;;;7.41;59.62
75913;BME280;64592;52.168;21.040;2023-03-01T15:29:16;101312.94;;;7.10;59.47
75913;BME280;64592;52.168;21.040;2023-03-01T15:34:22;101312.03;;;6.90;60.76
75913;BME280;64592;52.168;21.040;2023-03-01T15:39:34;101304.75;;;6.74;61.40
75913;BME280;64592;52.168;21.040;2023-03-01T15:44:39;101313.66;;;6.54;61.35
75913;BME280;64592;52.168;21.040;2023-03-01T15:49:45;101314.91;;;6.45;62.19
75913;BME280;64592;52.168;21.040;2023-03-01T15:54:46;101319.25;;;6.28;62.91
75913;BME280;64592;52.168;21.040;2023-03-01T15:59:50;101314.34;;;6.17;62.69
75913;BME280;64592;52.168;21.040;2023-03-01T16:04:52;101319.34;;;6.04;64.04
75913;BME280;64592;52.168;21.040;2023-03-01T16:09:54;101316.22;;;5.93;64.01
75913;BME280;64592;52.168;21.040;2023-03-01T16:14:57;101310.31;;;5.85;64.16
75913;BME280;64592;52.168;21.040;2023-03-01T16:19:58;101305.31;;;5.76;64.47
75913;BME280;64592;52.168;21.040;2023-03-01T16:25:00;101313.81;;;5.64;65.17
75913;BME280;64592;52.168;21.040;2023-03-01T16:30:05;101317.81;;;5.54;65.24
75913;BME280;64592;52.168;21.040;2023-03-01T16:35:09;101315.53;;;5.43;66.41
75913;BME280;64592;52.168;21.040;2023-03-01T16:40:17;101315.69;;;5.40;66.15
75913;BME280;64592;52.168;21.040;2023-03-01T16:45:20;101320.41;;;5.33;66.75
75913;BME280;64592;52.168;21.040;2023-03-01T16:50:22;101318.00;;;5.26;67.01
75913;BME280;64592;52.168;21.040;2023-03-01T16:55:24;101315.69;;;5.17;67.14
75913;BME280;64592;52.168;21.040;2023-03-01T17:00:27;101308.81;;;5.10;67.50
75913;BME280;64592;52.168;21.040;2023-03-01T17:05:29;101324.28;;;5.01;67.71
75913;BME280;64592;52.168;21.040;2023-03-01T17:10:32;101325.38;;;4.96;68.00
75913;BME280;64592;52.168;21.040;2023-03-01T17:15:38;101322.91;;;4.90;68.26
75913;BME280;64592;52.168;21.040;2023-03-01T17:20:39;101330.28;;;4.83;68.96
75913;BME280;64592;52.168;21.040;2023-03-01T17:25:42;101327.78;;;4.79;68.95
75913;BME280;64592;52.168;21.040;2023-03-01T17:30:46;101335.28;;;4.67;69.58
75913;BME280;64592;52.168;21.040;2023-03-01T17:35:49;101340.75;;;4.64;69.76
75913;BME280;64592;52.168;21.040;2023-03-01T17:40:51;101340.97;;;4.58;69.73
75913;BME280;64592;52.168;21.040;2023-03-01T17:45:54;101334.09;;;4.51;69.93
75913;BME280;64592;52.168;21.040;2023-03-01T17:50:56;101333.41;;;4.45;70.27
75913;BME280;64592;52.168;21.040;2023-03-01T17:55:59;101330.91;;;4.40;70.39
75913;BME280;64592;52.168;21.040;2023-03-01T18:01:11;101331.19;;;4.33;70.98
75913;BME280;64592;52.168;21.040;2023-03-01T18:06:15;101325.09;;;4.29;71.14
75913;BME280;64592;52.168;21.040;2023-03-01T18:11:17;101316.34;;;4.24;71.68
75913;BME280;64592;52.168;21.040;2023-03-01T18:16:21;101313.94;;;4.16;71.78
75913;BME280;64592;52.168;21.040;2023-03-01T18:21:23;101300.06;;;4.07;71.80
75913;BME280;64592;52.168;21.040;2023-03-01T18:26:25;101310.03;;;4.00;72.03
75913;BME280;64592;52.168;21.040;2023-03-01T18:31:30;101310.31;;;3.93;72.09
75913;BME280;64592;52.168;21.040;2023-03-01T18:36:34;101306.16;;;3.84;72.81
75913;BME280;64592;52.168;21.040;2023-03-01T18:41:37;101306.41;;;3.76;73.04
75913;BME280;64592;52.168;21.040;2023-03-01T18:46:40;101304.78;;;3.71;73.49
75913;BME280;64592;52.168;21.040;2023-03-01T18:51:42;101304.06;;;3.66;73.39
75913;BME280;64592;52.168;21.040;2023-03-01T18:56:44;101314.88;;;3.61;73.39
75913;BME280;64592;52.168;21.040;2023-03-01T19:01:47;101312.50;;;3.52;73.67
75913;BME280;64592;52.168;21.040;2023-03-01T19:06:49;101306.38;;;3.48;74.05
75913;BME280;64592;52.168;21.040;2023-03-01T19:11:50;101311.09;;;3.40;73.90
75913;BME280;64592;52.168;21.040;2023-03-01T19:16:54;101316.66;;;3.33;74.45
75913;BME280;64592;52.168;21.040;2023-03-01T19:21:55;101332.00;;;3.25;74.62
75913;BME280;64592;52.168;21.040;2023-03-01T19:26:57;101331.41;;;3.13;75.09
75913;BME280;64592;52.168;21.040;2023-03-01T19:32:00;101342.06;;;3.13;75.05
75913;BME280;64592;52.168;21.040;2023-03-01T19:37:02;101347.50;;;3.10;75.42
75913;BME280;64592;52.168;21.040;2023-03-01T19:42:04;101338.75;;;3.05;75.92
75913;BME280;64592;52.168;21.040;2023-03-01T19:47:07;101340.53;;;3.05;75.45
75913;BME280;64592;52.168;21.040;2023-03-01T19:52:09;101346.72;;;3.07;75.49
75913;BME280;64592;52.168;21.040;2023-03-01T19:57:10;101340.66;;;3.02;75.59
75913;BME280;64592;52.168;21.040;2023-03-01T20:02:13;101355.03;;;2.96;75.89
75913;BME280;64592;52.168;21.040;2023-03-01T20:07:15;101346.41;;;2.87;75.99
75913;BME280;64592;52.168;21.040;2023-03-01T20:12:18;101350.81;;;2.88;76.32
75913;BME280;64592;52.168;21.040;2023-03-01T20:17:21;101345.72;;;2.80;76.63
75913;BME280;64592;52.168;21.040;2023-03-01T20:22:23;101352.91;;;2.77;76.78
75913;BME280;64592;52.168;21.040;2023-03-01T20:27:24;101347.59;;;2.75;76.95
75913;BME280;64592;52.168;21.040;2023-03-01T20:32:27;101355.59;;;2.75;77.28
75913;BME280;64592;52.168;21.040;2023-03-01T20:37:30;101352.03;;;2.76;76.94
75913;BME280;64592;52.168;21.040;2023-03-01T20:42:32;101356.44;;;2.77;77.21
75913;BME280;64592;52.168;21.040;2023-03-01T20:47:35;101346.69;;;2.76;77.40
75913;BME280;64592;52.168;21.040;2023-03-01T20:52:37;101351.22;;;2.74;77.75
75913;BME280;64592;52.168;21.040;2023-03-01T20:57:39;101352.25;;;2.67;77.21
75913;BME280;64592;52.168;21.040;2023-03-01T21:02:44;101355.94;;;2.63;77.61
75913;BME280;64592;52.168;21.040;2023-03-01T21:07:46;101342.75;;;2.58;77.58
75913;BME280;64592;52.168;21.040;2023-03-01T21:12:48;101350.84;;;2.54;77.88
75913;BME280;64592;52.168;21.040;2023-03-01T21:17:51;101347.44;;;2.49;78.19
75913;BME280;64592;52.168;21.040;2023-03-01T21:22:53;101343.94;;;2.47;77.69
75913;BME280;64592;52.168;21.040;2023-03-01T21:27:54;101351.19;;;2.42;78.32
75913;BME280;64592;52.168;21.040;2023-03-01T21:32:57;101344.13;;;2.39;78.24
75913;BME280;64592;52.168;21.040;2023-03-01T21:37:59;101347.88;;;2.32;79.15
75913;BME280;64592;52.168;21.040;2023-03-01T21:43:01;101337.44;;;2.24;79.04
75913;BME280;64592;52.168;21.040;2023-03-01T21:48:04;101336.84;;;2.13;79.38
75913;BME280;64592;52.168;21.040;2023-03-01T21:53:06;101339.66;;;2.07;79.68
75913;BME280;64592;52.168;21.040;2023-03-01T21:58:07;101339.72;;;2.04;79.81
75913;BME280;64592;52.168;21.040;2023-03-01T22:03:10;101337.06;;;2.04;80.05
75913;BME280;64592;52.168;21.040;2023-03-01T22:08:12;101335.44;;;1.99;80.49
75913;BME280;64592;52.168;21.040;2023-03-01T22:13:14;101339.06;;;1.94;80.04
75913;BME280;64592;52.168;21.040;2023-03-01T22:18:17;101327.72;;;1.88;80.79
75913;BME280;64592;52.168;21.040;2023-03-01T22:23:19;101320.75;;;1.84;80.86
75913;BME280;64592;52.168;21.040;2023-03-01T22:28:21;101313.72;;;1.80;80.22
75913;BME280;64592;52.168;21.040;2023-03-01T22:33:24;101319.19;;;1.74;80.68
75913;BME280;64592;52.168;21.040;2023-03-01T22:38:26;101308.63;;;1.71;80.57
75913;BME280;64592;52.168;21.040;2023-03-01T22:43:29;101315.78;;;1.69;80.95
75913;BME280;64592;52.168;21.040;2023-03-01T22:48:32;101313.19;;;1.66;81.16
75913;BME280;64592;52.168;21.040;2023-03-01T22:53:34;101316.75;;;1.65;81.60
75913;BME280;64592;52.168;21.040;2023-03-01T22:58:35;101306.16;;;1.63;81.87
75913;BME280;64592;52.168;21.040;2023-03-01T23:03:38;101311.47;;;1.63;81.76
75913;BME280;64592;52.168;21.040;2023-03-01T23:08:40;101319.50;;;1.62;81.49
75913;BME280;64592;52.168;21.040;2023-03-01T23:13:42;101316.94;;;1.57;83.73
75913;BME280;64592;52.168;21.040;2023-03-01T23:18:45;101326.63;;;1.60;83.17
75913;BME280;64592;52.168;21.040;2023-03-01T23:23:47;101321.38;;;1.56;83.02
75913;BME280;64592;52.168;21.040;2023-03-01T23:28:49;101316.94;;;1.57;82.61
75913;BME280;64592;52.168;21.040;2023-03-01T23:33:53;101316.13;;;1.53;83.02
75913;BME280;64592;52.168;21.040;2023-03-01T23:38:56;101319.75;;;1.49;83.48
75913;BME280;64592;52.168;21.040;2023-03-01T23:44:00;101311.91;;;1.45;83.51
75913;BME280;64592;52.168;21.040;2023-03-01T23:49:03;101317.22;;;1.45;83.60
75913;BME280;64592;52.168;21.040;2023-03-01T23:54:05;101312.84;;;1.42;83.80
75913;BME280;64592;52.168;21.040;2023-03-01T23:59:09;101310.28;;;1.39;83.39
